sensor_id;sensor_type;location;lat;lon;timestamp;P1;P2;P0
69350;PMS7003;57106;51.446;-2.606;2022-11-27T16:36:25;35;31;
69350;PMS7003;57106;51.446;-2.606;2022-11-27T16:38:50;20;19;
69350;PMS7003;57106;51.446;-2.606;2022-11-27T16:41:17;15;13;
69350;PMS7003;57106;51.446;-2.606;2022-11-27T16:43:42;23;22;
69350;PMS7003;57106;51.446;-2.606;2022-11-27T16:46:08;19;15;
69350;PMS7003;57106;51.446;-2.606;2022-11-27T16:48:32;15;14;
69350;PMS7003;57106;51.446;-2.606;2022-11-27T16:51:00;25;21;
69350;PMS7003;57106;51.446;-2.606;2022-11-27T16:53:23;25;19;
69350;PMS7003;57106;51.446;-2.606;2022-11-27T16:55:48;17;13;
69350;PMS7003;57106;51.446;-2.606;2022-11-27T16:58:14;15;12;
69350;PMS7003;57106;51.446;-2.606;2022-11-27T17:00:39;19;15;
69350;PMS7003;57106;51.446;-2.606;2022-11-27T17:03:04;15;14;
69350;PMS7003;57106;51.446;-2.606;2022-11-27T17:05:30;21;14;
69350;PMS7003;57106;51.446;-2.606;2022-11-27T17:08:00;19;18;
69350;PMS7003;57106;51.446;-2.606;2022-11-27T17:10:20;19;15;
69350;PMS7003;57106;51.446;-2.606;2022-11-27T17:12:46;30;23;
69350;PMS7003;57106;51.446;-2.606;2022-11-27T17:15:12;46;40;
69350;PMS7003;57106;51.446;-2.606;2022-11-27T17:17:37;29;24;
69350;PMS7003;57106;51.446;-2.606;2022-11-27T17:20:02;29;26;
69350;PMS7003;57106;51.446;-2.606;2022-11-27T17:22:28;27;26;
69350;PMS7003;57106;51.446;-2.606;2022-11-27T17:24:53;27;24;
69350;PMS7003;57106;51.446;-2.606;2022-11-27T17:27:18;43;40;
69350;PMS7003;57106;51.446;-2.606;2022-11-27T17:29:43;33;30;
69350;PMS7003;57106;51.446;-2.606;2022-11-27T17:32:10;34;30;
69350;PMS7003;57106;51.446;-2.606;2022-11-27T17:34:34;40;34;
69350;PMS7003;57106;51.446;-2.606;2022-11-27T17:36:59;34;31;
69350;PMS7003;57106;51.446;-2.606;2022-11-27T17:39:24;29;27;
69350;PMS7003;57106;51.446;-2.606;2022-11-27T17:41:50;27;24;
69350;PMS7003;57106;51.446;-2.606;2022-11-27T17:44:15;42;35;
69350;PMS7003;57106;51.446;-2.606;2022-11-27T17:49:06;48;43;
69350;PMS7003;57106;51.446;-2.606;2022-11-27T17:51:34;45;42;
69350;PMS7003;57106;51.446;-2.606;2022-11-27T17:54:00;38;35;
69350;PMS7003;57106;51.446;-2.606;2022-11-27T17:56:22;32;30;
69350;PMS7003;57106;51.446;-2.606;2022-11-27T17:58:48;44;36;
69350;PMS7003;57106;51.446;-2.606;2022-11-27T18:01:15;33;29;
69350;PMS7003;57106;51.446;-2.606;2022-11-27T18:06:04;54;50;
69350;PMS7003;57106;51.446;-2.606;2022-11-27T18:08:30;55;50;
69350;PMS7003;57106;51.446;-2.606;2022-11-27T18:10:54;38;35;
69350;PMS7003;57106;51.446;-2.606;2022-11-27T18:13:20;31;29;
69350;PMS7003;57106;51.446;-2.606;2022-11-27T18:15:46;29;25;
69350;PMS7003;57106;51.446;-2.606;2022-11-27T18:18:11;24;21;
69350;PMS7003;57106;51.446;-2.606;2022-11-27T18:20:36;28;25;
69350;PMS7003;57106;51.446;-2.606;2022-11-27T18:23:02;25;21;
69350;PMS7003;57106;51.446;-2.606;2022-11-27T18:25:28;17;15;
69350;PMS7003;57106;51.446;-2.606;2022-11-27T18:27:53;20;19;
69350;PMS7003;57106;51.446;-2.606;2022-11-27T18:30:22;24;20;
69350;PMS7003;57106;51.446;-2.606;2022-11-27T18:32:47;28;26;
69350;PMS7003;57106;51.446;-2.606;2022-11-27T18:35:10;29;24;
69350;PMS7003;57106;51.446;-2.606;2022-11-27T18:37:34;25;23;
69350;PMS7003;57106;51.446;-2.606;2022-11-27T18:39:59;25;21;
69350;PMS7003;57106;51.446;-2.606;2022-11-27T18:42:24;23;20;
69350;PMS7003;57106;51.446;-2.606;2022-11-27T18:44:50;33;32;
69350;PMS7003;57106;51.446;-2.606;2022-11-27T18:47:15;58;50;
69350;PMS7003;57106;51.446;-2.606;2022-11-27T18:52:07;65;50;
69350;PMS7003;57106;51.446;-2.606;2022-11-27T18:54:31;54;48;
69350;PMS7003;57106;51.446;-2.606;2022-11-27T18:59:22;60;57;
69350;PMS7003;57106;51.446;-2.606;2022-11-27T19:01:55;69;65;
69350;PMS7003;57106;51.446;-2.606;2022-11-27T19:04:13;50;43;
69350;PMS7003;57106;51.446;-2.606;2022-11-27T19:06:38;59;55;
69350;PMS7003;57106;51.446;-2.606;2022-11-27T19:16:21;64;61;
69350;PMS7003;57106;51.446;-2.606;2022-11-27T19:23:37;57;51;
69350;PMS7003;57106;51.446;-2.606;2022-11-27T19:26:03;48;42;
69350;PMS7003;57106;51.446;-2.606;2022-11-27T19:28:31;58;52;
69350;PMS7003;57106;51.446;-2.606;2022-11-27T19:30:53;48;46;
69350;PMS7003;57106;51.446;-2.606;2022-11-27T20:50:55;30;26;
